sensor_id;sensor_type;location;lat;lon;timestamp;P1;durP1;ratioP1;P2;durP2;ratioP2
34282;SDS011;20542;49.828;8.746;2022-09-24T00:01:10;5.00;;;2.72;;
34282;SDS011;20542;49.828;8.746;2022-09-24T00:03:38;3.67;;;3.03;;
34282;SDS011;20542;49.828;8.746;2022-09-24T00:06:06;3.53;;;2.67;;
34282;SDS011;20542;49.828;8.746;2022-09-24T00:08:32;3.35;;;2.70;;
34282;SDS011;20542;49.828;8.746;2022-09-24T00:11:03;6.78;;;3.65;;
34282;SDS011;20542;49.828;8.746;2022-09-24T00:13:30;11.00;;;3.50;;
34282;SDS011;20542;49.828;8.746;2022-09-24T00:16:00;6.47;;;3.13;;
34282;SDS011;20542;49.828;8.746;2022-09-24T00:18:28;5.03;;;3.10;;
34282;SDS011;20542;49.828;8.746;2022-09-24T00:20:53;3.38;;;2.90;;
34282;SDS011;20542;49.828;8.746;2022-09-24T00:23:19;7.30;;;3.00;;
34282;SDS011;20542;49.828;8.746;2022-09-24T00:25:45;5.72;;;3.05;;
34282;SDS011;20542;49.828;8.746;2022-09-24T00:28:29;6.22;;;2.60;;
34282;SDS011;20542;49.828;8.746;2022-09-24T00:30:56;4.20;;;3.00;;
34282;SDS011;20542;49.828;8.746;2022-09-24T00:33:23;4.80;;;2.55;;
34282;SDS011;20542;49.828;8.746;2022-09-24T00:35:56;4.03;;;2.50;;
34282;SDS011;20542;49.828;8.746;2022-09-24T00:38:23;7.57;;;2.92;;
34282;SDS011;20542;49.828;8.746;2022-09-24T00:40:49;3.73;;;2.67;;
34282;SDS011;20542;49.828;8.746;2022-09-24T00:43:25;3.85;;;2.78;;
34282;SDS011;20542;49.828;8.746;2022-09-24T00:46:15;2.60;;;2.40;;
34282;SDS011;20542;49.828;8.746;2022-09-24T00:48:44;4.13;;;2.67;;
34282;SDS011;20542;49.828;8.746;2022-09-24T00:51:12;4.55;;;2.88;;
34282;SDS011;20542;49.828;8.746;2022-09-24T00:53:40;3.38;;;2.25;;
34282;SDS011;20542;49.828;8.746;2022-09-24T00:56:09;2.63;;;2.22;;
34282;SDS011;20542;49.828;8.746;2022-09-24T00:58:39;7.38;;;2.38;;
34282;SDS011;20542;49.828;8.746;2022-09-24T01:01:07;3.10;;;2.28;;
34282;SDS011;20542;49.828;8.746;2022-09-24T01:03:33;9.65;;;2.60;;
34282;SDS011;20542;49.828;8.746;2022-09-24T01:06:07;3.25;;;2.22;;
34282;SDS011;20542;49.828;8.746;2022-09-24T01:19:38;4.25;;;2.45;;
34282;SDS011;20542;49.828;8.746;2022-09-24T01:31:13;3.47;;;2.10;;
34282;SDS011;20542;49.828;8.746;2022-09-24T01:33:43;2.33;;;2.10;;
34282;SDS011;20542;49.828;8.746;2022-09-24T01:36:11;4.35;;;2.40;;
34282;SDS011;20542;49.828;8.746;2022-09-24T01:38:40;3.78;;;2.42;;
34282;SDS011;20542;49.828;8.746;2022-09-24T01:41:08;3.13;;;2.42;;
34282;SDS011;20542;49.828;8.746;2022-09-24T01:43:36;7.53;;;2.30;;
34282;SDS011;20542;49.828;8.746;2022-09-24T01:46:03;4.90;;;2.45;;
34282;SDS011;20542;49.828;8.746;2022-09-24T01:48:30;6.07;;;2.80;;
34282;SDS011;20542;49.828;8.746;2022-09-24T01:53:59;4.97;;;2.47;;
34282;SDS011;20542;49.828;8.746;2022-09-24T01:56:41;3.88;;;2.53;;
34282;SDS011;20542;49.828;8.746;2022-09-24T01:59:10;3.70;;;2.20;;
34282;SDS011;20542;49.828;8.746;2022-09-24T02:04:32;4.22;;;2.40;;
34282;SDS011;20542;49.828;8.746;2022-09-24T02:07:16;3.72;;;2.40;;
34282;SDS011;20542;49.828;8.746;2022-09-24T02:09:48;3.45;;;2.53;;
34282;SDS011;20542;49.828;8.746;2022-09-24T02:12:16;11.60;;;2.70;;
34282;SDS011;20542;49.828;8.746;2022-09-24T02:14:52;2.55;;;1.73;;
34282;SDS011;20542;49.828;8.746;2022-09-24T02:17:26;3.15;;;2.17;;
34282;SDS011;20542;49.828;8.746;2022-09-24T02:19:56;3.05;;;2.25;;
34282;SDS011;20542;49.828;8.746;2022-09-24T02:22:25;5.50;;;2.20;;
34282;SDS011;20542;49.828;8.746;2022-09-24T02:24:52;3.95;;;2.63;;
34282;SDS011;20542;49.828;8.746;2022-09-24T02:27:20;2.95;;;2.08;;
34282;SDS011;20542;49.828;8.746;2022-09-24T02:29:52;3.50;;;2.17;;
34282;SDS011;20542;49.828;8.746;2022-09-24T02:32:19;8.00;;;3.92;;
34282;SDS011;20542;49.828;8.746;2022-09-24T02:34:49;9.10;;;5.78;;
34282;SDS011;20542;49.828;8.746;2022-09-24T02:37:17;7.25;;;2.28;;
34282;SDS011;20542;49.828;8.746;2022-09-24T02:39:45;3.78;;;2.67;;
34282;SDS011;20542;49.828;8.746;2022-09-24T02:42:12;2.97;;;2.03;;
34282;SDS011;20542;49.828;8.746;2022-09-24T02:44:39;3.15;;;2.33;;
34282;SDS011;20542;49.828;8.746;2022-09-24T02:47:05;4.00;;;2.63;;
34282;SDS011;20542;49.828;8.746;2022-09-24T02:49:31;5.88;;;2.30;;
34282;SDS011;20542;49.828;8.746;2022-09-24T02:51:56;3.78;;;2.33;;
34282;SDS011;20542;49.828;8.746;2022-09-24T02:54:22;5.47;;;2.40;;
34282;SDS011;20542;49.828;8.746;2022-09-24T02:56:49;2.40;;;1.77;;
34282;SDS011;20542;49.828;8.746;2022-09-24T02:59:15;5.85;;;2.75;;
34282;SDS011;20542;49.828;8.746;2022-09-24T03:01:41;3.65;;;2.20;;
34282;SDS011;20542;49.828;8.746;2022-09-24T03:04:06;4.93;;;2.63;;
34282;SDS011;20542;49.828;8.746;2022-09-24T03:06:32;2.72;;;2.05;;
34282;SDS011;20542;49.828;8.746;2022-09-24T03:08:58;5.22;;;3.00;;
34282;SDS011;20542;49.828;8.746;2022-09-24T03:11:24;4.55;;;2.10;;
34282;SDS011;20542;49.828;8.746;2022-09-24T03:13:50;4.10;;;2.55;;
34282;SDS011;20542;49.828;8.746;2022-09-24T03:16:16;4.00;;;2.50;;
34282;SDS011;20542;49.828;8.746;2022-09-24T03:18:42;3.80;;;2.27;;
34282;SDS011;20542;49.828;8.746;2022-09-24T03:21:10;3.80;;;2.15;;
34282;SDS011;20542;49.828;8.746;2022-09-24T03:23:37;4.97;;;2.50;;
34282;SDS011;20542;49.828;8.746;2022-09-24T03:26:04;3.55;;;1.92;;
34282;SDS011;20542;49.828;8.746;2022-09-24T03:28:30;2.33;;;2.00;;
34282;SDS011;20542;49.828;8.746;2022-09-24T03:30:56;6.05;;;2.83;;
34282;SDS011;20542;49.828;8.746;2022-09-24T03:33:27;5.07;;;2.22;;
34282;SDS011;20542;49.828;8.746;2022-09-24T03:35:54;3.67;;;2.50;;
34282;SDS011;20542;49.828;8.746;2022-09-24T03:38:34;3.40;;;2.40;;
34282;SDS011;20542;49.828;8.746;2022-09-24T03:41:01;3.22;;;2.28;;
34282;SDS011;20542;49.828;8.746;2022-09-24T03:43:27;4.95;;;2.33;;
34282;SDS011;20542;49.828;8.746;2022-09-24T03:45:53;7.93;;;2.45;;
34282;SDS011;20542;49.828;8.746;2022-09-24T03:48:20;4.03;;;2.60;;
34282;SDS011;20542;49.828;8.746;2022-09-24T03:53:12;3.60;;;2.47;;
34282;SDS011;20542;49.828;8.746;2022-09-24T03:55:46;3.03;;;2.50;;
34282;SDS011;20542;49.828;8.746;2022-09-24T03:58:13;2.88;;;2.25;;
34282;SDS011;20542;49.828;8.746;2022-09-24T04:00:40;4.65;;;3.03;;
34282;SDS011;20542;49.828;8.746;2022-09-24T04:03:06;7.63;;;2.28;;
34282;SDS011;20542;49.828;8.746;2022-09-24T04:05:32;6.28;;;2.15;;
34282;SDS011;20542;49.828;8.746;2022-09-24T04:07:58;6.20;;;2.83;;
34282;SDS011;20542;49.828;8.746;2022-09-24T04:10:24;2.77;;;2.27;;
34282;SDS011;20542;49.828;8.746;2022-09-24T04:12:53;3.60;;;2.50;;
34282;SDS011;20542;49.828;8.746;2022-09-24T04:15:19;3.10;;;2.28;;
34282;SDS011;20542;49.828;8.746;2022-09-24T04:17:52;5.80;;;2.80;;
34282;SDS011;20542;49.828;8.746;2022-09-24T04:20:23;3.42;;;2.63;;
34282;SDS011;20542;49.828;8.746;2022-09-24T04:22:51;3.85;;;2.85;;
34282;SDS011;20542;49.828;8.746;2022-09-24T04:25:18;3.38;;;2.50;;
34282;SDS011;20542;49.828;8.746;2022-09-24T04:27:44;3.47;;;2.40;;
34282;SDS011;20542;49.828;8.746;2022-09-24T04:30:13;3.67;;;2.60;;
34282;SDS011;20542;49.828;8.746;2022-09-24T04:32:39;2.88;;;2.03;;
34282;SDS011;20542;49.828;8.746;2022-09-24T04:35:05;4.57;;;2.80;;
34282;SDS011;20542;49.828;8.746;2022-09-24T04:37:32;2.72;;;2.15;;
34282;SDS011;20542;49.828;8.746;2022-09-24T04:39:58;8.82;;;2.55;;
34282;SDS011;20542;49.828;8.746;2022-09-24T04:42:23;4.97;;;2.28;;
34282;SDS011;20542;49.828;8.746;2022-09-24T04:44:49;3.80;;;2.58;;
34282;SDS011;20542;49.828;8.746;2022-09-24T04:47:14;4.97;;;2.28;;
34282;SDS011;20542;49.828;8.746;2022-09-24T04:49:41;4.72;;;2.63;;
34282;SDS011;20542;49.828;8.746;2022-09-24T04:52:09;2.80;;;2.13;;
34282;SDS011;20542;49.828;8.746;2022-09-24T04:54:41;5.13;;;2.20;;
34282;SDS011;20542;49.828;8.746;2022-09-24T04:57:12;4.40;;;2.80;;
34282;SDS011;20542;49.828;8.746;2022-09-24T05:02:04;2.47;;;2.00;;
34282;SDS011;20542;49.828;8.746;2022-09-24T05:04:31;6.70;;;2.72;;
34282;SDS011;20542;49.828;8.746;2022-09-24T05:06:56;3.22;;;2.55;;
34282;SDS011;20542;49.828;8.746;2022-09-24T05:09:22;5.43;;;2.38;;
34282;SDS011;20542;49.828;8.746;2022-09-24T05:11:48;5.25;;;2.83;;
34282;SDS011;20542;49.828;8.746;2022-09-24T05:14:13;3.40;;;2.55;;
34282;SDS011;20542;49.828;8.746;2022-09-24T05:16:39;8.50;;;2.40;;
34282;SDS011;20542;49.828;8.746;2022-09-24T05:19:04;5.88;;;2.85;;
34282;SDS011;20542;49.828;8.746;2022-09-24T05:21:30;3.03;;;2.70;;
34282;SDS011;20542;49.828;8.746;2022-09-24T05:23:56;7.10;;;3.33;;
34282;SDS011;20542;49.828;8.746;2022-09-24T05:26:21;4.18;;;2.47;;
34282;SDS011;20542;49.828;8.746;2022-09-24T05:29:06;8.23;;;2.97;;
34282;SDS011;20542;49.828;8.746;2022-09-24T05:31:31;4.55;;;2.65;;
34282;SDS011;20542;49.828;8.746;2022-09-24T05:33:57;3.58;;;2.55;;
34282;SDS011;20542;49.828;8.746;2022-09-24T05:36:22;3.70;;;2.88;;
34282;SDS011;20542;49.828;8.746;2022-09-24T05:38:51;4.85;;;2.63;;
34282;SDS011;20542;49.828;8.746;2022-09-24T05:41:17;3.60;;;2.50;;
34282;SDS011;20542;49.828;8.746;2022-09-24T05:43:42;4.20;;;2.60;;
34282;SDS011;20542;49.828;8.746;2022-09-24T05:46:08;4.72;;;3.50;;
34282;SDS011;20542;49.828;8.746;2022-09-24T05:48:33;5.72;;;3.25;;
34282;SDS011;20542;49.828;8.746;2022-09-24T05:50:59;5.63;;;3.25;;
34282;SDS011;20542;49.828;8.746;2022-09-24T05:53:25;5.18;;;3.00;;
34282;SDS011;20542;49.828;8.746;2022-09-24T05:55:51;5.30;;;3.15;;
34282;SDS011;20542;49.828;8.746;2022-09-24T05:58:17;5.10;;;2.90;;
34282;SDS011;20542;49.828;8.746;2022-09-24T06:00:43;4.47;;;2.97;;
34282;SDS011;20542;49.828;8.746;2022-09-24T06:03:10;5.47;;;3.40;;
34282;SDS011;20542;49.828;8.746;2022-09-24T06:05:38;6.38;;;3.45;;
34282;SDS011;20542;49.828;8.746;2022-09-24T06:08:07;5.55;;;3.13;;
34282;SDS011;20542;49.828;8.746;2022-09-24T06:10:33;7.18;;;3.67;;
34282;SDS011;20542;49.828;8.746;2022-09-24T06:13:00;4.43;;;3.20;;
34282;SDS011;20542;49.828;8.746;2022-09-24T06:15:25;6.05;;;3.25;;
34282;SDS011;20542;49.828;8.746;2022-09-24T06:17:54;7.07;;;3.22;;
34282;SDS011;20542;49.828;8.746;2022-09-24T06:20:20;4.65;;;3.15;;
34282;SDS011;20542;49.828;8.746;2022-09-24T06:22:46;5.03;;;3.33;;
34282;SDS011;20542;49.828;8.746;2022-09-24T06:25:12;7.13;;;3.70;;
34282;SDS011;20542;49.828;8.746;2022-09-24T06:27:38;6.75;;;3.63;;
34282;SDS011;20542;49.828;8.746;2022-09-24T06:30:04;6.78;;;4.03;;
34282;SDS011;20542;49.828;8.746;2022-09-24T06:32:30;6.55;;;4.15;;
34282;SDS011;20542;49.828;8.746;2022-09-24T06:34:55;6.95;;;3.75;;
34282;SDS011;20542;49.828;8.746;2022-09-24T06:37:21;4.63;;;3.72;;
34282;SDS011;20542;49.828;8.746;2022-09-24T06:39:46;6.22;;;4.15;;
34282;SDS011;20542;49.828;8.746;2022-09-24T06:42:12;5.28;;;3.78;;
34282;SDS011;20542;49.828;8.746;2022-09-24T06:44:37;7.72;;;4.20;;
34282;SDS011;20542;49.828;8.746;2022-09-24T06:47:03;9.65;;;4.53;;
34282;SDS011;20542;49.828;8.746;2022-09-24T06:49:29;12.15;;;4.50;;
34282;SDS011;20542;49.828;8.746;2022-09-24T06:51:54;4.60;;;3.45;;
34282;SDS011;20542;49.828;8.746;2022-09-24T06:54:22;6.43;;;4.38;;
34282;SDS011;20542;49.828;8.746;2022-09-24T06:56:48;6.43;;;3.88;;
34282;SDS011;20542;49.828;8.746;2022-09-24T06:59:16;7.10;;;4.25;;
34282;SDS011;20542;49.828;8.746;2022-09-24T07:01:43;6.22;;;4.25;;
34282;SDS011;20542;49.828;8.746;2022-09-24T07:04:10;6.53;;;4.28;;
34282;SDS011;20542;49.828;8.746;2022-09-24T07:06:36;9.25;;;4.70;;
34282;SDS011;20542;49.828;8.746;2022-09-24T07:09:20;7.38;;;4.30;;
34282;SDS011;20542;49.828;8.746;2022-09-24T07:11:46;6.45;;;4.63;;
34282;SDS011;20542;49.828;8.746;2022-09-24T07:14:12;6.80;;;4.20;;
34282;SDS011;20542;49.828;8.746;2022-09-24T07:16:38;6.57;;;4.05;;
34282;SDS011;20542;49.828;8.746;2022-09-24T07:19:04;8.10;;;4.82;;
34282;SDS011;20542;49.828;8.746;2022-09-24T07:21:30;7.10;;;4.15;;
34282;SDS011;20542;49.828;8.746;2022-09-24T07:23:56;8.45;;;5.13;;
34282;SDS011;20542;49.828;8.746;2022-09-24T07:26:24;5.80;;;3.85;;
34282;SDS011;20542;49.828;8.746;2022-09-24T07:28:49;8.25;;;5.30;;
34282;SDS011;20542;49.828;8.746;2022-09-24T07:31:15;7.50;;;5.15;;
34282;SDS011;20542;49.828;8.746;2022-09-24T07:33:41;6.53;;;4.38;;
34282;SDS011;20542;49.828;8.746;2022-09-24T07:36:07;8.27;;;4.25;;
34282;SDS011;20542;49.828;8.746;2022-09-24T07:38:32;6.57;;;3.90;;
34282;SDS011;20542;49.828;8.746;2022-09-24T07:41:00;7.45;;;4.50;;
34282;SDS011;20542;49.828;8.746;2022-09-24T07:43:27;4.90;;;3.80;;
34282;SDS011;20542;49.828;8.746;2022-09-24T07:45:54;5.97;;;3.80;;
34282;SDS011;20542;49.828;8.746;2022-09-24T07:48:20;10.00;;;4.60;;
34282;SDS011;20542;49.828;8.746;2022-09-24T07:50:46;5.65;;;3.92;;
34282;SDS011;20542;49.828;8.746;2022-09-24T07:53:12;6.30;;;3.83;;
34282;SDS011;20542;49.828;8.746;2022-09-24T07:55:39;5.70;;;4.07;;
34282;SDS011;20542;49.828;8.746;2022-09-24T07:58:05;8.07;;;4.53;;
34282;SDS011;20542;49.828;8.746;2022-09-24T08:00:38;5.50;;;3.67;;
34282;SDS011;20542;49.828;8.746;2022-09-24T08:03:04;6.05;;;4.63;;
34282;SDS011;20542;49.828;8.746;2022-09-24T08:05:30;7.95;;;4.20;;
34282;SDS011;20542;49.828;8.746;2022-09-24T08:07:57;8.80;;;4.38;;
34282;SDS011;20542;49.828;8.746;2022-09-24T08:10:23;5.32;;;3.97;;
34282;SDS011;20542;49.828;8.746;2022-09-24T08:12:50;11.23;;;3.67;;
34282;SDS011;20542;49.828;8.746;2022-09-24T08:15:16;7.93;;;3.97;;
34282;SDS011;20542;49.828;8.746;2022-09-24T08:17:42;7.32;;;4.97;;
34282;SDS011;20542;49.828;8.746;2022-09-24T08:20:08;11.15;;;5.30;;
34282;SDS011;20542;49.828;8.746;2022-09-24T08:22:34;6.90;;;5.03;;
34282;SDS011;20542;49.828;8.746;2022-09-24T08:25:00;6.85;;;5.10;;
34282;SDS011;20542;49.828;8.746;2022-09-24T08:27:27;6.82;;;5.35;;
34282;SDS011;20542;49.828;8.746;2022-09-24T08:29:52;8.63;;;5.13;;
34282;SDS011;20542;49.828;8.746;2022-09-24T08:32:18;8.23;;;4.90;;
34282;SDS011;20542;49.828;8.746;2022-09-24T08:34:43;8.75;;;5.18;;
34282;SDS011;20542;49.828;8.746;2022-09-24T08:37:09;10.20;;;4.70;;
34282;SDS011;20542;49.828;8.746;2022-09-24T08:39:36;6.00;;;4.47;;
34282;SDS011;20542;49.828;8.746;2022-09-24T08:42:03;6.63;;;4.85;;
34282;SDS011;20542;49.828;8.746;2022-09-24T08:44:35;7.72;;;5.47;;
34282;SDS011;20542;49.828;8.746;2022-09-24T08:47:41;8.95;;;5.15;;
34282;SDS011;20542;49.828;8.746;2022-09-24T08:50:13;8.50;;;5.25;;
34282;SDS011;20542;49.828;8.746;2022-09-24T08:55:41;9.13;;;5.05;;
34282;SDS011;20542;49.828;8.746;2022-09-24T09:00:57;6.47;;;4.78;;
34282;SDS011;20542;49.828;8.746;2022-09-24T09:03:45;8.90;;;5.20;;
34282;SDS011;20542;49.828;8.746;2022-09-24T09:09:22;7.63;;;4.65;;
34282;SDS011;20542;49.828;8.746;2022-09-24T09:11:50;7.18;;;5.22;;
34282;SDS011;20542;49.828;8.746;2022-09-24T09:16:48;9.63;;;4.47;;
34282;SDS011;20542;49.828;8.746;2022-09-24T09:19:20;9.23;;;4.80;;
34282;SDS011;20542;49.828;8.746;2022-09-24T09:21:58;9.10;;;4.75;;
34282;SDS011;20542;49.828;8.746;2022-09-24T09:24:38;11.55;;;4.72;;
34282;SDS011;20542;49.828;8.746;2022-09-24T09:27:10;7.65;;;4.53;;
34282;SDS011;20542;49.828;8.746;2022-09-24T09:29:44;8.40;;;4.88;;
34282;SDS011;20542;49.828;8.746;2022-09-24T09:35:06;8.88;;;4.43;;
34282;SDS011;20542;49.828;8.746;2022-09-24T09:37:48;8.15;;;5.13;;
34282;SDS011;20542;49.828;8.746;2022-09-24T09:43:36;10.23;;;5.43;;
34282;SDS011;20542;49.828;8.746;2022-09-24T09:46:05;5.80;;;4.22;;
34282;SDS011;20542;49.828;8.746;2022-09-24T09:49:15;11.57;;;4.88;;
34282;SDS011;20542;49.828;8.746;2022-09-24T09:51:25;5.38;;;3.97;;
34282;SDS011;20542;49.828;8.746;2022-09-24T09:53:59;8.75;;;5.35;;
34282;SDS011;20542;49.828;8.746;2022-09-24T09:56:27;7.72;;;5.07;;
34282;SDS011;20542;49.828;8.746;2022-09-24T09:59:03;6.53;;;4.47;;
34282;SDS011;20542;49.828;8.746;2022-09-24T10:01:32;6.93;;;5.05;;
34282;SDS011;20542;49.828;8.746;2022-09-24T10:03:59;7.90;;;5.40;;
34282;SDS011;20542;49.828;8.746;2022-09-24T10:06:32;10.55;;;4.50;;
34282;SDS011;20542;49.828;8.746;2022-09-24T10:09:14;7.70;;;4.63;;
34282;SDS011;20542;49.828;8.746;2022-09-24T10:11:41;7.80;;;4.90;;
34282;SDS011;20542;49.828;8.746;2022-09-24T10:14:13;13.85;;;4.97;;
34282;SDS011;20542;49.828;8.746;2022-09-24T10:16:42;9.82;;;5.03;;
34282;SDS011;20542;49.828;8.746;2022-09-24T10:19:17;5.75;;;4.00;;
34282;SDS011;20542;49.828;8.746;2022-09-24T10:21:46;6.78;;;4.20;;
34282;SDS011;20542;49.828;8.746;2022-09-24T10:24:14;7.70;;;3.85;;
34282;SDS011;20542;49.828;8.746;2022-09-24T10:26:45;8.63;;;3.95;;
34282;SDS011;20542;49.828;8.746;2022-09-24T10:29:13;6.75;;;4.15;;
34282;SDS011;20542;49.828;8.746;2022-09-24T10:32:02;8.75;;;3.63;;
34282;SDS011;20542;49.828;8.746;2022-09-24T10:34:29;5.45;;;3.60;;
34282;SDS011;20542;49.828;8.746;2022-09-24T10:37:02;5.00;;;3.72;;
34282;SDS011;20542;49.828;8.746;2022-09-24T10:39:37;6.50;;;3.40;;
34282;SDS011;20542;49.828;8.746;2022-09-24T10:42:02;4.93;;;3.65;;
34282;SDS011;20542;49.828;8.746;2022-09-24T10:44:33;3.60;;;2.95;;
34282;SDS011;20542;49.828;8.746;2022-09-24T10:48:02;3.83;;;3.10;;
34282;SDS011;20542;49.828;8.746;2022-09-24T10:55:18;7.72;;;4.25;;
34282;SDS011;20542;49.828;8.746;2022-09-24T11:01:07;9.55;;;4.47;;
34282;SDS011;20542;49.828;8.746;2022-09-24T11:04:01;6.82;;;4.13;;
34282;SDS011;20542;49.828;8.746;2022-09-24T11:09:30;6.28;;;4.28;;
34282;SDS011;20542;49.828;8.746;2022-09-24T11:12:32;4.53;;;3.72;;
34282;SDS011;20542;49.828;8.746;2022-09-24T11:29:20;7.93;;;3.50;;
34282;SDS011;20542;49.828;8.746;2022-09-24T11:32:15;5.85;;;3.95;;
34282;SDS011;20542;49.828;8.746;2022-09-24T11:40:42;5.88;;;3.80;;
34282;SDS011;20542;49.828;8.746;2022-09-24T11:51:59;4.07;;;3.53;;
34282;SDS011;20542;49.828;8.746;2022-09-24T11:54:37;8.68;;;3.22;;
34282;SDS011;20542;49.828;8.746;2022-09-24T11:59:54;5.38;;;3.60;;
34282;SDS011;20542;49.828;8.746;2022-09-24T12:02:24;6.22;;;3.85;;
34282;SDS011;20542;49.828;8.746;2022-09-24T12:05:08;4.68;;;3.70;;
34282;SDS011;20542;49.828;8.746;2022-09-24T12:07:52;7.55;;;4.22;;
34282;SDS011;20542;49.828;8.746;2022-09-24T12:16:03;7.00;;;4.35;;
34282;SDS011;20542;49.828;8.746;2022-09-24T12:18:53;5.63;;;4.43;;
34282;SDS011;20542;49.828;8.746;2022-09-24T12:21:35;7.28;;;4.70;;
34282;SDS011;20542;49.828;8.746;2022-09-24T12:24:10;9.05;;;5.40;;
34282;SDS011;20542;49.828;8.746;2022-09-24T12:26:45;11.80;;;5.53;;
34282;SDS011;20542;49.828;8.746;2022-09-24T12:32:10;10.25;;;5.18;;
34282;SDS011;20542;49.828;8.746;2022-09-24T12:35:20;7.93;;;4.43;;
34282;SDS011;20542;49.828;8.746;2022-09-24T12:38:07;6.65;;;5.00;;
34282;SDS011;20542;49.828;8.746;2022-09-24T12:43:31;13.43;;;4.55;;
34282;SDS011;20542;49.828;8.746;2022-09-24T12:46:00;11.25;;;7.32;;
34282;SDS011;20542;49.828;8.746;2022-09-24T12:48:28;7.45;;;6.00;;
34282;SDS011;20542;49.828;8.746;2022-09-24T12:50:58;10.00;;;5.40;;
34282;SDS011;20542;49.828;8.746;2022-09-24T12:56:22;10.00;;;5.22;;
34282;SDS011;20542;49.828;8.746;2022-09-24T12:58:50;9.60;;;4.43;;
34282;SDS011;20542;49.828;8.746;2022-09-24T13:06:38;5.13;;;3.67;;
34282;SDS011;20542;49.828;8.746;2022-09-24T13:09:21;5.60;;;3.30;;
34282;SDS011;20542;49.828;8.746;2022-09-24T13:11:48;5.72;;;3.05;;
34282;SDS011;20542;49.828;8.746;2022-09-24T13:14:49;6.38;;;4.00;;
34282;SDS011;20542;49.828;8.746;2022-09-24T13:17:21;5.90;;;3.38;;
34282;SDS011;20542;49.828;8.746;2022-09-24T13:19:47;6.65;;;4.22;;
34282;SDS011;20542;49.828;8.746;2022-09-24T13:27:35;3.80;;;2.63;;
34282;SDS011;20542;49.828;8.746;2022-09-24T13:32:48;4.97;;;2.22;;
34282;SDS011;20542;49.828;8.746;2022-09-24T13:35:17;3.20;;;2.28;;
34282;SDS011;20542;49.828;8.746;2022-09-24T13:38:07;4.63;;;2.35;;
34282;SDS011;20542;49.828;8.746;2022-09-24T13:40:48;3.22;;;2.53;;
34282;SDS011;20542;49.828;8.746;2022-09-24T13:46:04;3.80;;;2.30;;
34282;SDS011;20542;49.828;8.746;2022-09-24T13:48:36;7.00;;;2.53;;
34282;SDS011;20542;49.828;8.746;2022-09-24T13:51:28;4.78;;;2.83;;
34282;SDS011;20542;49.828;8.746;2022-09-24T13:56:38;7.32;;;3.42;;
34282;SDS011;20542;49.828;8.746;2022-09-24T13:59:05;8.90;;;2.90;;
34282;SDS011;20542;49.828;8.746;2022-09-24T14:01:38;4.70;;;2.83;;
34282;SDS011;20542;49.828;8.746;2022-09-24T14:04:12;6.13;;;3.00;;
34282;SDS011;20542;49.828;8.746;2022-09-24T14:06:46;4.40;;;3.00;;
34282;SDS011;20542;49.828;8.746;2022-09-24T14:09:16;7.25;;;2.92;;
34282;SDS011;20542;49.828;8.746;2022-09-24T14:14:19;5.93;;;3.22;;
34282;SDS011;20542;49.828;8.746;2022-09-24T14:16:48;6.18;;;3.42;;
34282;SDS011;20542;49.828;8.746;2022-09-24T14:19:15;9.25;;;3.20;;
34282;SDS011;20542;49.828;8.746;2022-09-24T14:21:45;8.70;;;3.78;;
34282;SDS011;20542;49.828;8.746;2022-09-24T14:29:20;7.32;;;3.28;;
34282;SDS011;20542;49.828;8.746;2022-09-24T14:31:54;10.15;;;3.05;;
34282;SDS011;20542;49.828;8.746;2022-09-24T14:34:41;6.10;;;3.05;;
34282;SDS011;20542;49.828;8.746;2022-09-24T14:37:14;7.95;;;3.17;;
34282;SDS011;20542;49.828;8.746;2022-09-24T14:39:43;14.55;;;3.47;;
34282;SDS011;20542;49.828;8.746;2022-09-24T14:42:12;4.13;;;2.92;;
34282;SDS011;20542;49.828;8.746;2022-09-24T14:44:44;6.00;;;2.67;;
34282;SDS011;20542;49.828;8.746;2022-09-24T14:47:22;6.97;;;3.00;;
34282;SDS011;20542;49.828;8.746;2022-09-24T14:49:52;4.18;;;2.92;;
34282;SDS011;20542;49.828;8.746;2022-09-24T14:52:37;5.03;;;3.28;;
34282;SDS011;20542;49.828;8.746;2022-09-24T14:55:14;4.93;;;2.92;;
34282;SDS011;20542;49.828;8.746;2022-09-24T14:57:42;6.32;;;3.17;;
34282;SDS011;20542;49.828;8.746;2022-09-24T15:00:26;5.43;;;2.92;;
34282;SDS011;20542;49.828;8.746;2022-09-24T15:03:01;6.50;;;3.58;;
34282;SDS011;20542;49.828;8.746;2022-09-24T15:05:30;7.10;;;3.40;;
34282;SDS011;20542;49.828;8.746;2022-09-24T15:08:08;7.40;;;3.20;;
34282;SDS011;20542;49.828;8.746;2022-09-24T15:10:35;4.78;;;4.05;;
34282;SDS011;20542;49.828;8.746;2022-09-24T15:13:10;5.55;;;3.33;;
34282;SDS011;20542;49.828;8.746;2022-09-24T15:15:39;4.20;;;3.05;;
34282;SDS011;20542;49.828;8.746;2022-09-24T15:18:09;4.72;;;3.33;;
34282;SDS011;20542;49.828;8.746;2022-09-24T15:20:35;5.70;;;4.40;;
34282;SDS011;20542;49.828;8.746;2022-09-24T15:23:01;5.22;;;3.60;;
34282;SDS011;20542;49.828;8.746;2022-09-24T15:25:27;7.50;;;3.55;;
34282;SDS011;20542;49.828;8.746;2022-09-24T15:27:53;6.63;;;3.78;;
34282;SDS011;20542;49.828;8.746;2022-09-24T15:30:19;6.15;;;3.97;;
34282;SDS011;20542;49.828;8.746;2022-09-24T15:32:45;5.78;;;3.80;;
34282;SDS011;20542;49.828;8.746;2022-09-24T15:35:14;6.32;;;3.40;;
34282;SDS011;20542;49.828;8.746;2022-09-24T15:37:40;5.47;;;3.70;;
34282;SDS011;20542;49.828;8.746;2022-09-24T15:42:40;4.80;;;3.45;;
34282;SDS011;20542;49.828;8.746;2022-09-24T15:45:16;6.20;;;3.75;;
34282;SDS011;20542;49.828;8.746;2022-09-24T15:47:46;7.32;;;4.13;;
34282;SDS011;20542;49.828;8.746;2022-09-24T15:50:13;10.13;;;3.80;;
34282;SDS011;20542;49.828;8.746;2022-09-24T15:52:41;5.00;;;3.80;;
34282;SDS011;20542;49.828;8.746;2022-09-24T15:55:13;9.45;;;3.60;;
34282;SDS011;20542;49.828;8.746;2022-09-24T15:57:41;6.18;;;4.18;;
34282;SDS011;20542;49.828;8.746;2022-09-24T16:00:11;5.88;;;3.75;;
34282;SDS011;20542;49.828;8.746;2022-09-24T16:02:42;6.18;;;4.30;;
34282;SDS011;20542;49.828;8.746;2022-09-24T16:05:10;5.38;;;4.53;;
34282;SDS011;20542;49.828;8.746;2022-09-24T16:07:37;8.38;;;4.50;;
34282;SDS011;20542;49.828;8.746;2022-09-24T16:10:03;9.10;;;4.30;;
34282;SDS011;20542;49.828;8.746;2022-09-24T16:12:29;7.82;;;4.07;;
34282;SDS011;20542;49.828;8.746;2022-09-24T16:14:55;6.75;;;4.10;;
34282;SDS011;20542;49.828;8.746;2022-09-24T16:17:23;7.65;;;4.25;;
34282;SDS011;20542;49.828;8.746;2022-09-24T16:19:49;5.93;;;3.60;;
34282;SDS011;20542;49.828;8.746;2022-09-24T16:22:15;7.60;;;3.85;;
34282;SDS011;20542;49.828;8.746;2022-09-24T16:24:40;7.45;;;4.30;;
34282;SDS011;20542;49.828;8.746;2022-09-24T16:27:06;8.25;;;4.22;;
34282;SDS011;20542;49.828;8.746;2022-09-24T16:29:31;6.35;;;4.25;;
34282;SDS011;20542;49.828;8.746;2022-09-24T16:31:57;5.05;;;3.72;;
34282;SDS011;20542;49.828;8.746;2022-09-24T16:34:22;6.20;;;3.85;;
34282;SDS011;20542;49.828;8.746;2022-09-24T16:36:49;8.65;;;3.92;;
34282;SDS011;20542;49.828;8.746;2022-09-24T16:39:14;6.35;;;3.55;;
34282;SDS011;20542;49.828;8.746;2022-09-24T16:41:40;6.93;;;4.65;;
34282;SDS011;20542;49.828;8.746;2022-09-24T16:44:06;5.47;;;3.58;;
34282;SDS011;20542;49.828;8.746;2022-09-24T16:46:32;9.20;;;6.30;;
34282;SDS011;20542;49.828;8.746;2022-09-24T16:48:58;7.97;;;5.97;;
34282;SDS011;20542;49.828;8.746;2022-09-24T16:51:23;17.60;;;4.88;;
34282;SDS011;20542;49.828;8.746;2022-09-24T16:53:55;8.02;;;5.13;;
34282;SDS011;20542;49.828;8.746;2022-09-24T16:56:21;6.25;;;3.88;;
34282;SDS011;20542;49.828;8.746;2022-09-24T16:58:49;7.80;;;4.45;;
34282;SDS011;20542;49.828;8.746;2022-09-24T17:01:15;7.90;;;5.07;;
34282;SDS011;20542;49.828;8.746;2022-09-24T17:03:42;10.35;;;4.90;;
34282;SDS011;20542;49.828;8.746;2022-09-24T17:06:15;10.48;;;5.35;;
34282;SDS011;20542;49.828;8.746;2022-09-24T17:08:42;8.40;;;4.97;;
34282;SDS011;20542;49.828;8.746;2022-09-24T17:11:27;7.05;;;4.90;;
34282;SDS011;20542;49.828;8.746;2022-09-24T17:13:52;8.80;;;4.93;;
34282;SDS011;20542;49.828;8.746;2022-09-24T17:16:18;8.77;;;4.75;;
34282;SDS011;20542;49.828;8.746;2022-09-24T17:18:43;4.82;;;3.80;;